createdAt,value
2022-10-01T00:00:56.200Z,98067.41
2022-10-01T00:03:26.342Z,98069.28
2022-10-01T00:06:01.494Z,98068.25
2022-10-01T00:08:31.282Z,98078.34
2022-10-01T00:11:01.731Z,98068.44
2022-10-01T00:13:30.633Z,98079.22
2022-10-01T00:16:00.526Z,98080.03
2022-10-01T00:18:29.742Z,98078.34
2022-10-01T00:20:58.230Z,98072.97
2022-10-01T00:23:26.721Z,98077.53
2022-10-01T00:25:55.168Z,98086.41
2022-10-01T00:28:23.704Z,98071.16
2022-10-01T00:30:52.211Z,98082.91
2022-10-01T00:33:22.200Z,98078.34
2022-10-01T00:35:50.973Z,98082.91
2022-10-01T00:38:19.486Z,98084.59
2022-10-01T00:40:47.943Z,98082.91
2022-10-01T00:43:23.084Z,98092.81
2022-10-01T00:45:51.779Z,98082.91
2022-10-01T00:48:21.880Z,98087.44
2022-10-01T00:50:50.325Z,98089.31
2022-10-01T00:53:18.846Z,98082.06
2022-10-01T00:55:51.905Z,98083.09
2022-10-01T00:58:20.492Z,98096.34
2022-10-01T01:00:49.116Z,98097.38
2022-10-01T01:03:17.600Z,98092.00
2022-10-01T01:05:47.909Z,98090.31
2022-10-01T01:08:16.374Z,98080.41
2022-10-01T01:10:51.495Z,98075.03
2022-10-01T01:13:25.330Z,98068.78
2022-10-01T01:15:57.657Z,98069.66
2022-10-01T01:18:30.292Z,98069.66
2022-10-01T01:21:23.106Z,98068.78
2022-10-01T01:24:41.042Z,98068.78
2022-10-01T01:27:24.251Z,98070.50
2022-10-01T01:29:55.950Z,98074.19
2022-10-01T01:32:27.513Z,98085.78
2022-10-01T01:34:56.507Z,98087.63
2022-10-01T01:37:27.446Z,98080.41
2022-10-01T01:39:57.361Z,98080.41
2022-10-01T01:42:31.268Z,98084.94
2022-10-01T01:45:02.228Z,98079.56
2022-10-01T01:47:33.070Z,98072.53
2022-10-01T01:50:02.943Z,98069.00
2022-10-01T01:52:31.598Z,98076.03
2022-10-01T01:55:00.117Z,98088.47
2022-10-01T01:57:28.688Z,98086.78
2022-10-01T01:59:57.141Z,98091.34
2022-10-01T02:02:28.134Z,98085.97
2022-10-01T02:04:57.907Z,98083.28
2022-10-01T02:08:15.564Z,98077.91
2022-10-01T02:11:10.834Z,98075.22
2022-10-01T02:13:47.432Z,98082.44
2022-10-01T02:16:21.230Z,98083.28
2022-10-01T02:18:56.004Z,98077.06
2022-10-01T02:21:29.101Z,98077.91
2022-10-01T02:23:59.858Z,98087.00
2022-10-01T02:26:28.559Z,98087.81
2022-10-01T02:28:59.570Z,98085.13
2022-10-01T02:31:29.424Z,98094.19
2022-10-01T02:34:00.049Z,98093.19
2022-10-01T02:36:28.643Z,98087.81
2022-10-01T02:38:57.114Z,98083.28
2022-10-01T02:41:28.351Z,98078.94
2022-10-01T02:43:59.026Z,98078.94
2022-10-01T02:46:30.673Z,98080.75
2022-10-01T02:49:01.304Z,98090.69
2022-10-01T02:51:37.224Z,98090.69
2022-10-01T02:54:10.390Z,98091.50
2022-10-01T02:56:56.490Z,98091.50
2022-10-01T02:59:24.984Z,98090.69
2022-10-01T03:01:53.575Z,98087.16
2022-10-01T03:04:23.373Z,98095.25
2022-10-01T03:06:51.763Z,98098.75
2022-10-01T03:09:20.166Z,98093.38
2022-10-01T03:11:48.540Z,98089.84
2022-10-01T03:14:16.945Z,98099.78
2022-10-01T03:16:45.326Z,98081.78
2022-10-01T03:19:13.744Z,98087.16
2022-10-01T03:21:44.898Z,98080.13
2022-10-01T03:24:13.266Z,98079.09
2022-10-01T03:26:41.870Z,98084.47
2022-10-01T03:29:11.352Z,98080.97
2022-10-01T03:31:39.876Z,98073.91
2022-10-01T03:34:08.351Z,98072.06
2022-10-01T03:36:36.773Z,98076.59
2022-10-01T03:39:06.648Z,98069.38
2022-10-01T03:41:35.345Z,98073.91
2022-10-01T03:44:04.268Z,98069.56
2022-10-01T03:46:32.722Z,98060.44
2022-10-01T03:49:01.166Z,98055.06
2022-10-01T03:51:29.649Z,98054.25
2022-10-01T03:53:58.491Z,98048.88
2022-10-01T03:56:28.385Z,98047.22
2022-10-01T03:58:56.792Z,98042.66
2022-10-01T04:01:26.045Z,98045.34
2022-10-01T04:03:54.519Z,98042.66
2022-10-01T04:06:22.878Z,98042.66
2022-10-01T04:08:51.243Z,98029.22
2022-10-01T04:11:19.639Z,98019.50
2022-10-01T04:13:49.512Z,98025.69
2022-10-01T04:16:18.011Z,98030.25
2022-10-01T04:18:46.469Z,98041.00
2022-10-01T04:21:15.598Z,98028.41
2022-10-01T04:23:43.967Z,98024.88
2022-10-01T04:26:12.389Z,98014.13
2022-10-01T04:28:40.893Z,98018.66
2022-10-01T04:31:25.894Z,98014.13
2022-10-01T04:33:55.075Z,98010.59
2022-10-01T04:36:23.868Z,98014.13
2022-10-01T04:38:55.573Z,98019.50
2022-10-01T04:41:26.637Z,98023.19
2022-10-01T04:43:55.077Z,98028.56
2022-10-01T04:46:25.032Z,98035.81
2022-10-01T04:48:53.581Z,98029.59
2022-10-01T04:51:22.067Z,98024.22
2022-10-01T04:53:50.659Z,98034.97
2022-10-01T04:56:19.146Z,98043.03
2022-10-01T04:58:48.625Z,98028.78
2022-10-01T05:01:17.248Z,98024.22
2022-10-01T05:03:47.471Z,98026.06
2022-10-01T05:06:15.951Z,98024.41
2022-10-01T05:08:44.392Z,98034.97
2022-10-01T05:11:12.983Z,98041.19
2022-10-01T05:13:41.801Z,98037.66
2022-10-01T05:16:11.901Z,98036.84
2022-10-01T05:18:40.912Z,98033.31
2022-10-01T05:21:11.784Z,98036.84
2022-10-01T05:23:40.294Z,98036.00
2022-10-01T05:26:08.720Z,98027.94
2022-10-01T05:28:37.489Z,98017.19
2022-10-01T05:31:06.393Z,98024.22
2022-10-01T05:33:35.252Z,98026.06
2022-10-01T05:36:04.087Z,98029.59
2022-10-01T05:38:36.251Z,98024.22
2022-10-01T05:41:04.924Z,98024.22
2022-10-01T05:43:33.581Z,98026.06
2022-10-01T05:46:02.901Z,98027.94
2022-10-01T05:48:36.967Z,98027.94
2022-10-01T05:51:06.858Z,98019.00
2022-10-01T05:53:37.811Z,98027.94
2022-10-01T05:56:07.023Z,98027.09
2022-10-01T05:58:35.641Z,98036.00
2022-10-01T06:01:05.077Z,98024.41
2022-10-01T06:03:33.474Z,98023.56
2022-10-01T06:06:01.918Z,98036.84
2022-10-01T06:08:30.477Z,98031.25
2022-10-01T06:11:04.456Z,98025.88
2022-10-01T06:13:33.226Z,98020.72
2022-10-01T06:16:02.036Z,98018.00
2022-10-01T06:18:30.415Z,98020.72
2022-10-01T06:21:00.313Z,98023.19
2022-10-01T06:23:28.773Z,98023.19
2022-10-01T06:25:57.245Z,98021.16
2022-10-01T06:28:27.073Z,98019.94
2022-10-01T06:30:55.586Z,98028.84
2022-10-01T06:33:24.064Z,98018.28
2022-10-01T06:35:53.334Z,98021.16
2022-10-01T06:38:23.416Z,98023.47
2022-10-01T06:40:55.085Z,98027.19
2022-10-01T06:43:23.555Z,98021.81
2022-10-01T06:45:53.463Z,98024.50
2022-10-01T06:48:22.249Z,98021.97
2022-10-01T06:50:52.337Z,98019.13
2022-10-01T06:53:20.800Z,98027.09
2022-10-01T06:55:51.053Z,98017.34
2022-10-01T06:58:21.105Z,98027.63
2022-10-01T07:00:50.110Z,98022.75
2022-10-01T07:03:21.313Z,98018.56
2022-10-01T07:05:51.233Z,98022.47
2022-10-01T07:08:19.760Z,98015.41
2022-10-01T07:10:48.151Z,98015.59
2022-10-01T07:13:20.429Z,98014.75
2022-10-01T07:15:48.897Z,98018.47
2022-10-01T07:18:17.921Z,98009.19
2022-10-01T07:20:47.666Z,98004.19
2022-10-01T07:23:16.512Z,98001.97
2022-10-01T07:26:08.582Z,97999.25
2022-10-01T07:28:39.686Z,97996.56
2022-10-01T07:31:11.347Z,97999.91
2022-10-01T07:33:39.865Z,98000.94
2022-10-01T07:36:12.389Z,98004.25
2022-10-01T07:38:41.807Z,98005.13
2022-10-01T07:41:10.968Z,98002.88
2022-10-01T07:43:41.571Z,97997.50
2022-10-01T07:46:10.124Z,97994.81
2022-10-01T07:48:38.631Z,98006.22
2022-10-01T07:51:07.780Z,97988.22
2022-10-01T07:53:37.541Z,97992.78
2022-10-01T07:56:06.788Z,97991.91
2022-10-01T07:58:35.429Z,97994.44
2022-10-01T08:01:05.304Z,97988.03
2022-10-01T08:03:33.799Z,97988.22
2022-10-01T08:06:03.503Z,97983.69
2022-10-01T08:08:32.319Z,97997.78
2022-10-01T08:11:04.840Z,97987.84
2022-10-01T08:13:35.050Z,97992.41
2022-10-01T08:16:04.353Z,97986.63
2022-10-01T08:18:32.879Z,97984.13
2022-10-01T08:21:02.184Z,97982.47
2022-10-01T08:23:32.573Z,97985.97
2022-10-01T08:26:01.372Z,97983.28
2022-10-01T08:28:31.294Z,97980.59
2022-10-01T08:31:01.382Z,97980.59
2022-10-01T08:33:30.163Z,97978.75
2022-10-01T08:36:02.314Z,97970.88
2022-10-01T08:38:30.869Z,97970.69
2022-10-01T08:41:08.556Z,97969.66
2022-10-01T08:43:39.606Z,97966.97
2022-10-01T08:46:11.937Z,97962.59
2022-10-01T08:48:50.026Z,97968.47
2022-10-01T08:51:24.853Z,97962.25
2022-10-01T08:53:56.420Z,97966.78
2022-10-01T08:56:36.285Z,97962.03
2022-10-01T08:59:11.185Z,97959.34
2022-10-01T09:01:39.724Z,97963.91
2022-10-01T09:04:08.338Z,97948.97
2022-10-01T09:06:37.832Z,97958.69
2022-10-01T09:09:23.859Z,97959.75
2022-10-01T09:12:03.328Z,97957.69
2022-10-01T09:15:05.673Z,97950.47
2022-10-01T09:17:45.613Z,97955.63
2022-10-01T09:20:21.797Z,97955.63
2022-10-01T09:22:56.269Z,97959.34
2022-10-01T09:25:26.064Z,97953.97
2022-10-01T09:27:55.451Z,97953.16
2022-10-01T09:30:26.307Z,97955.63
2022-10-01T09:32:59.653Z,97954.63
2022-10-01T09:35:36.846Z,97947.38
2022-10-01T09:38:10.890Z,97948.69
2022-10-01T09:40:45.074Z,97945.34
2022-10-01T09:43:14.510Z,97939.75
2022-10-01T09:45:44.813Z,97942.44
2022-10-01T09:48:20.303Z,97944.31
2022-10-01T09:50:56.529Z,97939.75
2022-10-01T09:53:30.316Z,97945.13
2022-10-01T09:56:01.772Z,97931.69
2022-10-01T09:58:31.157Z,97939.59
2022-10-01T10:01:01.536Z,97935.88
2022-10-01T10:03:32.096Z,97936.75
2022-10-01T10:06:01.928Z,97934.06
2022-10-01T10:08:31.953Z,97928.69
2022-10-01T10:11:01.597Z,97922.25
2022-10-01T10:13:35.113Z,97920.59
2022-10-01T10:16:11.103Z,97912.53
2022-10-01T10:18:40.435Z,97914.38
2022-10-01T10:21:14.678Z,97911.50
2022-10-01T10:23:51.092Z,97909.63
2022-10-01T10:26:21.905Z,97899.09
2022-10-01T10:28:50.413Z,97891.84
2022-10-01T10:31:21.841Z,97883.28
2022-10-01T10:33:53.436Z,97891.03
2022-10-01T10:36:21.843Z,97875.50
2022-10-01T10:38:52.413Z,97877.19
2022-10-01T10:41:26.436Z,97873.06
2022-10-01T10:43:58.218Z,97870.94
2022-10-01T10:46:31.599Z,97863.72
2022-10-01T10:49:05.224Z,97858.78
2022-10-01T10:51:49.392Z,97842.81
2022-10-01T10:54:29.316Z,97843.88
2022-10-01T10:57:03.512Z,97848.59
2022-10-01T10:59:34.563Z,97833.50
2022-10-01T11:02:06.577Z,97827.06
2022-10-01T11:04:41.396Z,97820.88
2022-10-01T11:07:09.845Z,97802.88
2022-10-01T11:10:08.790Z,97801.22
2022-10-01T11:12:49.658Z,97791.50
2022-10-01T11:15:33.912Z,97776.78
2022-10-01T11:18:15.171Z,97778.66
2022-10-01T11:20:50.649Z,97770.81
2022-10-01T11:23:37.711Z,97770.59
2022-10-01T11:26:16.563Z,97758.34
2022-10-01T11:28:52.489Z,97752.59
2022-10-01T11:31:28.271Z,97754.91
2022-10-01T11:34:10.467Z,97751.81
2022-10-01T11:36:41.740Z,97757.78
2022-10-01T11:39:12.321Z,97752.41
2022-10-01T11:41:42.519Z,97746.19
2022-10-01T11:44:15.612Z,97755.09
2022-10-01T11:46:59.016Z,97741.00
2022-10-01T11:49:45.590Z,97734.63
2022-10-01T11:52:25.605Z,97734.41
2022-10-01T11:55:22.962Z,97728.38
2022-10-01T11:58:12.061Z,97726.53
2022-10-01T12:00:40.536Z,97725.69
2022-10-01T12:03:16.139Z,97720.13
2022-10-01T12:05:46.284Z,97723.84
2022-10-01T12:08:18.951Z,97716.41
2022-10-01T12:10:52.269Z,97721.16
2022-10-01T12:13:25.222Z,97721.78
2022-10-01T12:15:57.579Z,97714.75
2022-10-01T12:18:31.125Z,97722.16
2022-10-01T12:21:02.452Z,97711.22
2022-10-01T12:23:45.139Z,97712.88
2022-10-01T12:26:19.475Z,97705.63
2022-10-01T12:28:54.561Z,97704.63
2022-10-01T12:31:28.650Z,97701.09
2022-10-01T12:34:09.321Z,97693.88
2022-10-01T12:36:47.760Z,97693.88
2022-10-01T12:39:31.751Z,97699.25
2022-10-01T12:42:12.101Z,97701.28
2022-10-01T12:44:59.873Z,97701.28
2022-10-01T12:47:38.465Z,97700.66
2022-10-01T12:50:22.373Z,97692.41
2022-10-01T12:53:03.308Z,97692.59
2022-10-01T12:55:47.279Z,97681.44
2022-10-01T12:58:22.761Z,97683.50
2022-10-01T13:00:55.928Z,97683.50
2022-10-01T13:03:54.149Z,97683.28
2022-10-01T13:06:30.626Z,97673.56
2022-10-01T13:09:07.598Z,97677.91
2022-10-01T13:11:53.511Z,97679.78
2022-10-01T13:14:22.676Z,97674.41
2022-10-01T13:16:56.821Z,97667.38
2022-10-01T13:19:28.872Z,97666.50
2022-10-01T13:22:08.703Z,97667.38
2022-10-01T13:24:42.650Z,97667.38
2022-10-01T13:27:14.579Z,97663.81
2022-10-01T13:29:50.796Z,97660.13
2022-10-01T13:32:33.987Z,97657.44
2022-10-01T13:35:03.833Z,97654.94
2022-10-01T13:37:38.246Z,97658.66
2022-10-01T13:40:26.788Z,97653.28
2022-10-01T13:42:56.989Z,97652.06
2022-10-01T13:45:31.564Z,97640.47
2022-10-01T13:48:09.006Z,97642.13
2022-10-01T13:50:37.478Z,97641.06
2022-10-01T13:53:07.412Z,97640.47
2022-10-01T13:55:41.923Z,97646.84
2022-10-01T13:58:32.158Z,97635.09
2022-10-01T14:01:01.701Z,97637.13
2022-10-01T14:03:50.593Z,97633.41
2022-10-01T14:06:23.865Z,97632.41
2022-10-01T14:08:55.357Z,97630.72
2022-10-01T14:11:44.184Z,97627.03
2022-10-01T14:14:35.565Z,97624.31
2022-10-01T14:17:05.990Z,97621.00
2022-10-01T14:19:34.660Z,97620.78
2022-10-01T14:22:16.904Z,97619.34
2022-10-01T14:25:09.007Z,97621.00
2022-10-01T14:27:43.008Z,97618.31
2022-10-01T14:30:13.982Z,97605.69
2022-10-01T14:33:12.246Z,97604.84
2022-10-01T14:35:42.361Z,97602.16
2022-10-01T14:38:15.872Z,97593.28
2022-10-01T14:40:45.130Z,97588.72
2022-10-01T14:43:19.237Z,97589.53
2022-10-01T14:45:53.357Z,97583.34
2022-10-01T14:48:22.987Z,97577.97
2022-10-01T14:50:53.170Z,97564.50
2022-10-01T14:53:23.612Z,97569.50
2022-10-01T14:55:56.402Z,97571.78
2022-10-01T14:58:30.976Z,97574.47
2022-10-01T15:00:59.612Z,97567.44
2022-10-01T15:03:28.236Z,97564.75
2022-10-01T15:06:04.783Z,97561.22
2022-10-01T15:08:41.351Z,97557.69
2022-10-01T15:11:14.128Z,97557.69
2022-10-01T15:13:45.372Z,97554.19
2022-10-01T15:16:15.073Z,97552.31
2022-10-01T15:18:45.920Z,97550.66
2022-10-01T15:21:20.095Z,97557.69
2022-10-01T15:23:49.048Z,97558.91
2022-10-01T15:26:22.924Z,97555.00
2022-10-01T15:29:03.652Z,97555.00
2022-10-01T15:31:32.474Z,97553.34
2022-10-01T15:34:02.869Z,97561.41
2022-10-01T15:36:31.341Z,97569.69
2022-10-01T15:39:00.721Z,97564.28
2022-10-01T15:41:33.135Z,97558.91
2022-10-01T15:44:04.805Z,97557.28
2022-10-01T15:46:35.402Z,97548.56
2022-10-01T15:49:26.063Z,97555.63
2022-10-01T15:52:14.694Z,97550.44
2022-10-01T15:54:44.311Z,97556.81
2022-10-01T15:57:17.559Z,97556.81
2022-10-01T15:59:47.750Z,97551.44
2022-10-01T16:02:21.185Z,97551.44
2022-10-01T16:04:51.028Z,97544.19
2022-10-01T16:07:21.691Z,97554.94
2022-10-01T16:09:53.761Z,97550.63
2022-10-01T16:12:23.012Z,97547.28
2022-10-01T16:14:59.798Z,97548.94
2022-10-01T16:17:30.953Z,97556.19
2022-10-01T16:20:01.228Z,97548.94
2022-10-01T16:22:32.696Z,97547.06
2022-10-01T16:25:03.486Z,97541.34
2022-10-01T16:27:34.523Z,97538.19
2022-10-01T16:30:12.353Z,97534.28
2022-10-01T16:32:41.273Z,97530.75
2022-10-01T16:35:20.845Z,97536.97
2022-10-01T16:37:50.276Z,97529.75
2022-10-01T16:40:18.982Z,97529.75
2022-10-01T16:42:48.163Z,97532.25
2022-10-01T16:45:19.825Z,97534.94
2022-10-01T16:47:48.245Z,97533.28
2022-10-01T16:50:19.811Z,97539.47
2022-10-01T16:52:48.300Z,97531.41
2022-10-01T16:55:22.792Z,97531.19
2022-10-01T16:57:51.252Z,97520.44
2022-10-01T17:00:21.956Z,97525.00
2022-10-01T17:02:50.388Z,97514.22
2022-10-01T17:05:22.331Z,97510.72
2022-10-01T17:07:50.850Z,97511.75
2022-10-01T17:10:20.226Z,97515.47
2022-10-01T17:12:49.162Z,97508.03
2022-10-01T17:15:19.342Z,97507.22
2022-10-01T17:17:49.183Z,97507.22
2022-10-01T17:20:18.960Z,97501.84
2022-10-01T17:22:47.491Z,97512.59
2022-10-01T17:25:16.503Z,97501.00
2022-10-01T17:27:44.914Z,97499.75
2022-10-01T17:30:13.516Z,97492.94
2022-10-01T17:32:43.111Z,97498.09
2022-10-01T17:35:13.327Z,97502.00
2022-10-01T17:37:42.256Z,97500.34
2022-10-01T17:40:11.624Z,97486.06
2022-10-01T17:42:40.212Z,97485.22
2022-10-01T17:45:10.725Z,97493.09
2022-10-01T17:47:44.930Z,97497.84
2022-10-01T17:50:15.200Z,97494.31
2022-10-01T17:52:44.084Z,97490.00
2022-10-01T17:55:13.263Z,97494.31
2022-10-01T17:57:41.831Z,97498.88
2022-10-01T18:00:11.512Z,97490.00
2022-10-01T18:02:42.967Z,97492.69
2022-10-01T18:05:12.735Z,97508.81
2022-10-01T18:07:42.663Z,97509.81
2022-10-01T18:10:13.341Z,97512.91
2022-10-01T18:12:41.909Z,97517.06
2022-10-01T18:15:10.927Z,97521.00
2022-10-01T18:17:43.408Z,97525.53
2022-10-01T18:20:15.100Z,97523.50
2022-10-01T18:22:44.894Z,97539.81
2022-10-01T18:25:15.016Z,97535.47
2022-10-01T18:27:43.700Z,97547.25
2022-10-01T18:30:13.250Z,97553.84
2022-10-01T18:32:44.450Z,97558.03
2022-10-01T18:35:26.547Z,97569.44
2022-10-01T18:37:57.200Z,97564.25
2022-10-01T18:40:29.041Z,97569.41
2022-10-01T18:43:00.912Z,97577.47
2022-10-01T18:45:46.684Z,97573.31
2022-10-01T18:48:43.015Z,97574.13
2022-10-01T18:51:15.968Z,97573.13
2022-10-01T18:54:14.159Z,97575.81
2022-10-01T18:56:44.694Z,97572.09
2022-10-01T18:59:31.060Z,97579.50
2022-10-01T19:02:16.630Z,97587.19
2022-10-01T19:05:07.587Z,97580.97
2022-10-01T19:07:47.472Z,97587.00
2022-10-01T19:10:23.227Z,97588.44
2022-10-01T19:12:57.951Z,97591.94
2022-10-01T19:15:36.015Z,97594.81
2022-10-01T19:18:20.527Z,97603.72
2022-10-01T19:20:57.756Z,97605.41
2022-10-01T19:24:18.670Z,97611.78
2022-10-01T19:26:53.957Z,97611.78
2022-10-01T19:29:38.578Z,97623.00
2022-10-01T19:32:11.478Z,97623.19
2022-10-01T19:34:42.699Z,97633.75
2022-10-01T19:37:14.494Z,97621.13
2022-10-01T19:39:43.141Z,97629.38
2022-10-01T19:42:17.210Z,97625.69
2022-10-01T19:44:54.366Z,97632.06
2022-10-01T19:47:32.033Z,97617.81
2022-10-01T19:50:06.537Z,97632.28
2022-10-01T19:52:38.324Z,97628.78
2022-10-01T19:55:12.870Z,97629.59
2022-10-01T19:57:44.542Z,97630.59
2022-10-01T20:00:17.944Z,97632.47
2022-10-01T20:02:52.436Z,97633.28
2022-10-01T20:05:26.015Z,97628.97
2022-10-01T20:08:01.540Z,97632.47
2022-10-01T20:10:34.997Z,97628.97
2022-10-01T20:13:20.892Z,97627.09
2022-10-01T20:15:55.368Z,97628.97
2022-10-01T20:18:29.220Z,97630.81
2022-10-01T20:21:12.477Z,97631.66
2022-10-01T20:23:45.387Z,97635.38
2022-10-01T20:26:22.592Z,97639.91
2022-10-01T20:29:11.593Z,97646.97
2022-10-01T20:31:43.363Z,97635.38
2022-10-01T20:34:15.225Z,97632.69
2022-10-01T20:36:46.957Z,97644.06
2022-10-01T20:39:18.825Z,97646.97
2022-10-01T20:41:49.349Z,97648.81
2022-10-01T20:44:21.967Z,97648.81
2022-10-01T20:46:52.079Z,97656.88
2022-10-01T20:49:27.314Z,97661.41
2022-10-01T20:52:00.474Z,97655.22
2022-10-01T20:54:33.296Z,97654.38
2022-10-01T20:57:07.020Z,97655.84
2022-10-01T20:59:40.077Z,97662.69
2022-10-01T21:02:24.579Z,97655.66
2022-10-01T21:04:56.493Z,97665.56
2022-10-01T21:07:31.617Z,97665.56
2022-10-01T21:10:00.792Z,97668.25
2022-10-01T21:12:32.749Z,97674.69
2022-10-01T21:15:02.647Z,97666.59
2022-10-01T21:17:41.546Z,97664.75
2022-10-01T21:20:36.083Z,97672.81
2022-10-01T21:23:18.270Z,97668.91
2022-10-01T21:25:57.075Z,97671.59
2022-10-01T21:28:52.607Z,97678.00
2022-10-01T21:31:34.680Z,97676.31
2022-10-01T21:34:04.534Z,97678.00
2022-10-01T21:36:38.711Z,97675.72
2022-10-01T21:39:11.703Z,97676.31
2022-10-01T21:41:52.230Z,97673.03
2022-10-01T21:45:10.320Z,97680.06
2022-10-01T21:47:57.159Z,97674.69
2022-10-01T21:50:35.246Z,97664.97
2022-10-01T21:53:49.941Z,97673.03
2022-10-01T21:56:31.736Z,97676.31
2022-10-01T21:59:07.117Z,97680.88
2022-10-01T22:01:56.575Z,97683.78
2022-10-01T22:04:32.143Z,97680.44
2022-10-01T22:07:05.018Z,97683.13
2022-10-01T22:09:36.241Z,97680.44
2022-10-01T22:12:06.242Z,97684.16
2022-10-01T22:14:40.457Z,97687.03
2022-10-01T22:17:13.768Z,97693.25
2022-10-01T22:19:47.102Z,97692.44
2022-10-01T22:22:20.943Z,97694.28
2022-10-01T22:24:50.545Z,97688.06
2022-10-01T22:27:22.219Z,97684.53
2022-10-01T22:29:53.750Z,97688.91
2022-10-01T22:32:25.000Z,97693.44
2022-10-01T22:34:58.837Z,97703.38
2022-10-01T22:37:30.158Z,97695.28
2022-10-01T22:40:00.677Z,97701.50
2022-10-01T22:42:31.836Z,97702.53
2022-10-01T22:45:03.926Z,97703.56
2022-10-01T22:47:45.940Z,97699.84
2022-10-01T22:50:30.114Z,97702.75
2022-10-01T22:53:08.953Z,97703.38
2022-10-01T22:55:44.124Z,97703.56
2022-10-01T22:58:25.392Z,97708.97
2022-10-01T23:01:01.717Z,97708.13
2022-10-01T23:03:41.203Z,97708.13
2022-10-01T23:06:14.926Z,97716.19
2022-10-01T23:08:46.451Z,97715.34
2022-10-01T23:11:21.162Z,97714.34
2022-10-01T23:13:57.043Z,97713.50
2022-10-01T23:16:33.406Z,97729.63
2022-10-01T23:19:16.805Z,97719.06
2022-10-01T23:21:52.628Z,97719.06
2022-10-01T23:24:33.034Z,97729.63
2022-10-01T23:27:07.774Z,97729.81
2022-10-01T23:30:02.776Z,97729.81
2022-10-01T23:33:31.761Z,97742.44
2022-10-01T23:36:05.132Z,97733.53
2022-10-01T23:38:57.783Z,97732.69
2022-10-01T23:41:30.224Z,97731.69
2022-10-01T23:44:05.091Z,97735.19
2022-10-01T23:46:34.035Z,97748.81
2022-10-01T23:49:05.579Z,97746.13
2022-10-01T23:51:37.912Z,97746.13
2022-10-01T23:54:12.864Z,97748.81
2022-10-01T23:56:50.684Z,97751.50
2022-10-01T23:59:26.396Z,97743.44
